Time;durP1;ratioP1;P1;durP2;ratioP2;P2;SDS_P1;SDS_P2;PMS_P1;PMS_P2;Temp;Humidity;BMP_temperature;BMP_pressure;BME280_temperature;BME280_humidity;BME280_pressure;Samples;Min_cycle;Max_cycle;Signal;HPM_P1;HPM_P2
2023/06/13 00:00:44;;;;;;;8.88;4.13;;;;;;;23.92;32.24;101259.38;5034938;28;20458;-62
2023/06/13 00:03:13;;;;;;;5.75;3.80;;;;;;;23.77;32.64;101256.13;5034804;28;20521;-64
2023/06/13 00:05:45;;;;;;;8.40;4.10;;;;;;;23.73;32.73;101266.31;5024324;28;20041;-62
2023/06/13 00:08:21;;;;;;;7.95;4.03;;;;;;;23.75;32.72;101255.66;5019396;28;20050;-63
2023/06/13 00:10:48;;;;;;;9.30;4.30;;;;;;;23.71;32.75;101254.69;5033865;28;20045;-62
2023/06/13 00:13:17;;;;;;;7.75;4.40;;;;;;;23.67;32.92;101258.50;5034154;28;20080;-62
2023/06/13 00:15:53;;;;;;;10.80;4.40;;;;;;;23.63;33.11;101266.75;5034082;28;20049;-63
2023/06/13 00:18:22;;;;;;;9.07;4.00;;;;;;;23.56;33.29;101255.38;5014155;28;20049;-64
2023/06/13 00:20:54;;;;;;;7.75;4.05;;;;;;;23.51;33.48;101252.84;5031038;28;20386;-62
2023/06/13 00:23:22;;;;;;;7.35;4.20;;;;;;;23.51;33.37;101261.19;5029687;28;20124;-64
2023/06/13 00:25:50;;;;;;;11.23;4.35;;;;;;;23.48;33.69;101261.88;5034079;28;20099;-62
2023/06/13 00:28:18;;;;;;;9.25;4.20;;;;;;;23.46;33.55;101250.28;5034194;28;20453;-62
2023/06/13 00:30:46;;;;;;;6.70;4.28;;;;;;;23.35;33.87;101259.06;5010194;28;20034;-63
2023/06/13 00:33:17;;;;;;;7.40;3.70;;;;;;;23.31;34.03;101255.34;5014671;28;20137;-64
2023/06/13 00:35:46;;;;;;;9.38;4.00;;;;;;;23.31;34.26;101258.13;5013461;28;20046;-62
2023/06/13 00:38:17;;;;;;;8.20;4.15;;;;;;;23.29;34.17;101254.06;5014000;28;20129;-62
2023/06/13 00:40:44;;;;;;;8.43;4.38;;;;;;;23.29;34.42;101260.44;5027322;28;20449;-63
2023/06/13 00:43:12;;;;;;;9.77;4.78;;;;;;;23.22;34.57;101262.16;5028198;28;20096;-65
2023/06/13 00:45:40;;;;;;;10.30;4.22;;;;;;;23.15;34.73;101255.19;5022454;28;20046;-61
2023/06/13 00:48:08;;;;;;;11.70;4.47;;;;;;;23.14;34.86;101247.22;5047831;28;20046;-63
2023/06/13 00:50:40;;;;;;;7.05;4.28;;;;;;;23.13;34.88;101256.69;5042823;28;20074;-63
2023/06/13 00:53:09;;;;;;;8.35;4.40;;;;;;;23.13;34.78;101251.13;5015832;28;20052;-64
2023/06/13 00:55:39;;;;;;;10.25;4.30;;;;;;;23.13;34.87;101256.69;5021960;28;20042;-63
2023/06/13 00:58:07;;;;;;;6.55;4.15;;;;;;;23.12;35.00;101253.09;5045252;28;20053;-63
2023/06/13 01:00:36;;;;;;;12.10;4.30;;;;;;;23.11;35.01;101248.69;5045254;28;20061;-64
2023/06/13 01:03:09;;;;;;;6.90;4.05;;;;;;;23.04;35.17;101250.41;5041210;28;20448;-64
2023/06/13 01:05:38;;;;;;;8.38;4.40;;;;;;;23.02;35.31;101249.94;5014430;28;20137;-64
2023/06/13 01:08:19;;;;;;;6.82;4.10;;;;;;;22.99;35.25;101256.19;4997423;28;20050;-64
2023/06/13 01:10:53;;;;;;;7.90;4.53;;;;;;;22.97;35.52;101243.41;5013735;28;20061;-63
2023/06/13 01:13:29;;;;;;;9.70;4.80;;;;;;;22.96;35.53;101241.78;5013399;28;20081;-64
2023/06/13 01:16:13;;;;;;;8.23;4.35;;;;;;;22.87;35.72;101243.81;5014420;28;20042;-63
2023/06/13 01:18:43;;;;;;;9.32;4.50;;;;;;;22.81;35.96;101238.84;5046679;28;20430;-63
2023/06/13 01:21:12;;;;;;;7.03;3.92;;;;;;;22.76;35.99;101245.41;4999559;28;20045;-64
2023/06/13 01:23:58;;;;;;;9.55;4.55;;;;;;;22.74;36.13;101239.38;5031753;28;20112;-62
2023/06/13 01:26:40;;;;;;;9.20;4.47;;;;;;;22.65;36.27;101239.44;5032240;28;20097;-64
2023/06/13 01:29:08;;;;;;;7.80;4.63;;;;;;;22.60;36.33;101236.06;5022327;28;20054;-63
2023/06/13 01:31:37;;;;;;;11.88;4.80;;;;;;;22.50;36.64;101240.88;4996540;28;20046;-63
2023/06/13 01:34:05;;;;;;;10.90;4.28;;;;;;;22.41;37.00;101237.34;5030758;28;20049;-63
2023/06/13 01:36:33;;;;;;;8.73;4.90;;;;;;;22.42;36.74;101241.78;5032849;28;20536;-64
2023/06/13 01:39:01;;;;;;;10.82;4.68;;;;;;;22.44;36.84;101244.19;5033025;28;20049;-63
2023/06/13 01:41:28;;;;;;;10.70;4.90;;;;;;;22.40;37.10;101249.63;5033066;28;20512;-62
2023/06/13 01:43:58;;;;;;;8.07;4.75;;;;;;;22.38;37.11;101240.81;5030857;28;20474;-63
2023/06/13 01:46:29;;;;;;;12.48;4.65;;;;;;;22.35;37.19;101241.50;4999171;28;20038;-63
2023/06/13 01:49:24;;;;;;;8.65;4.57;;;;;;;22.36;37.01;101239.53;5031422;28;20413;-63
2023/06/13 01:52:25;;;;;;;8.13;4.25;;;;;;;22.31;37.28;101237.75;5032290;28;20053;-62
2023/06/13 01:55:02;;;;;;;9.52;4.55;;;;;;;22.31;37.22;101244.13;5014879;28;20133;-64
2023/06/13 01:57:38;;;;;;;8.13;4.82;;;;;;;22.28;37.44;101230.13;5012572;28;20514;-63
2023/06/13 02:00:09;;;;;;;10.00;4.47;;;;;;;22.28;37.41;101230.13;4996494;28;20088;-65
2023/06/13 02:02:41;;;;;;;7.32;4.55;;;;;;;22.29;37.56;101237.28;4997613;28;20053;-64
2023/06/13 02:05:11;;;;;;;8.50;4.22;;;;;;;22.27;37.43;101237.66;5027399;28;20555;-64
2023/06/13 02:07:40;;;;;;;10.82;5.05;;;;;;;22.27;37.50;101231.25;5016039;28;20139;-64
2023/06/13 02:10:08;;;;;;;10.32;4.45;;;;;;;22.23;37.52;101225.56;5036172;28;20041;-64
2023/06/13 02:12:36;;;;;;;8.35;4.40;;;;;;;22.13;37.77;101237.06;5037587;28;20124;-62
2023/06/13 02:15:08;;;;;;;8.55;4.53;;;;;;;22.06;37.99;101231.22;5015383;28;20049;-62
2023/06/13 02:17:35;;;;;;;7.47;4.65;;;;;;;21.99;38.27;101239.25;5016395;28;20133;-63
2023/06/13 02:20:04;;;;;;;8.93;4.60;;;;;;;21.93;38.49;101233.06;5017473;28;20056;-64
2023/06/13 02:22:33;;;;;;;7.90;4.30;;;;;;;21.94;38.36;101231.94;5016043;28;20077;-65
2023/06/13 02:25:03;;;;;;;9.30;4.78;;;;;;;21.96;38.47;101228.81;5020944;28;20385;-63
2023/06/13 02:27:30;;;;;;;10.18;4.80;;;;;;;21.98;38.37;101235.66;5030617;28;20042;-64
2023/06/13 02:29:58;;;;;;;7.90;4.68;;;;;;;21.98;38.46;101234.84;5017018;28;20078;-63
2023/06/13 02:32:29;;;;;;;8.65;4.90;;;;;;;21.94;38.42;101233.91;5049024;28;20125;-64
2023/06/13 02:34:57;;;;;;;10.13;4.93;;;;;;;21.89;38.57;101237.69;5015277;28;20573;-62
2023/06/13 02:37:25;;;;;;;10.75;5.03;;;;;;;21.86;38.65;101233.63;5054355;28;20504;-62
2023/06/13 02:39:52;;;;;;;8.30;5.13;;;;;;;21.86;38.72;101233.63;5016359;28;20137;-64
2023/06/13 02:42:20;;;;;;;10.35;4.68;;;;;;;21.85;38.70;101237.53;5031624;28;20129;-62
2023/06/13 02:44:48;;;;;;;9.70;4.57;;;;;;;21.83;38.74;101244.56;5037659;28;20049;-63
2023/06/13 02:47:16;;;;;;;8.20;4.82;;;;;;;21.78;39.09;101239.19;5033320;28;20072;-63
2023/06/13 02:49:44;;;;;;;8.80;4.53;;;;;;;21.74;39.09;101235.47;5029993;28;20045;-63
2023/06/13 02:52:11;;;;;;;7.90;4.60;;;;;;;21.73;39.08;101236.63;5035107;28;20136;-63
2023/06/13 02:54:39;;;;;;;9.38;4.50;;;;;;;21.67;39.39;101231.25;5036566;28;20095;-60
2023/06/13 02:57:08;;;;;;;8.18;4.50;;;;;;;21.65;39.43;101228.00;5033174;28;20467;-63
2023/06/13 02:59:36;;;;;;;9.63;4.80;;;;;;;21.64;39.29;101237.47;5012048;28;20042;-63
2023/06/13 03:02:04;;;;;;;12.73;5.07;;;;;;;21.57;39.54;101231.63;5015541;28;20070;-64
2023/06/13 03:04:32;;;;;;;11.50;4.78;;;;;;;21.48;39.89;101236.41;5015207;28;20046;-63
2023/06/13 03:07:01;;;;;;;8.80;4.70;;;;;;;21.42;40.11;101234.94;5000189;28;20120;-63
2023/06/13 03:09:29;;;;;;;11.40;4.72;;;;;;;21.38;39.99;101233.94;5018544;28;20124;-65
2023/06/13 03:11:56;;;;;;;8.90;5.18;;;;;;;21.32;40.19;101240.81;5033283;28;20120;-63
2023/06/13 03:14:24;;;;;;;11.88;4.75;;;;;;;21.26;40.34;101237.41;5034774;28;20045;-63
2023/06/13 03:16:57;;;;;;;8.45;5.13;;;;;;;21.23;40.45;101241.66;5034728;28;20049;-62
2023/06/13 03:19:25;;;;;;;8.48;4.65;;;;;;;21.18;40.77;101230.75;5002918;28;20506;-63
2023/06/13 03:21:53;;;;;;;11.68;4.93;;;;;;;21.14;40.83;101235.34;5015162;28;20050;-63
2023/06/13 03:24:21;;;;;;;7.97;4.45;;;;;;;21.11;40.84;101235.97;5016418;28;20045;-63
2023/06/13 03:26:49;;;;;;;10.88;5.30;;;;;;;21.05;41.10;101238.13;5034445;28;20049;-64
2023/06/13 03:29:17;;;;;;;8.63;4.82;;;;;;;21.06;41.08;101238.94;5035708;28;20516;-63
2023/06/13 03:31:44;;;;;;;10.30;5.00;;;;;;;21.12;40.77;101232.09;5031118;28;20137;-63
2023/06/13 03:34:12;;;;;;;8.55;4.47;;;;;;;21.17;41.02;101233.88;5014433;28;20104;-63
2023/06/13 03:36:43;;;;;;;9.75;5.40;;;;;;;21.16;40.69;101226.69;5048961;28;20101;-64
2023/06/13 03:39:11;;;;;;;10.00;4.97;;;;;;;21.11;40.96;101233.22;5019166;28;20041;-63
2023/06/13 03:41:39;;;;;;;10.80;4.82;;;;;;;21.15;40.79;101228.63;5034537;28;20401;-62
2023/06/13 03:44:07;;;;;;;8.18;4.97;;;;;;;21.11;41.07;101230.44;5017542;28;20050;-64
2023/06/13 03:46:36;;;;;;;9.93;5.18;;;;;;;21.08;41.01;101222.78;5034466;28;20073;-63
2023/06/13 03:49:04;;;;;;;11.55;5.22;;;;;;;21.13;41.16;101221.81;5020056;28;20058;-63
2023/06/13 03:51:32;;;;;;;12.55;5.30;;;;;;;21.12;41.00;101218.22;5030735;28;20375;-63
2023/06/13 03:53:59;;;;;;;9.50;4.63;;;;;;;21.11;41.08;101226.84;5034350;28;20529;-63
2023/06/13 03:56:27;;;;;;;8.18;4.97;;;;;;;21.07;41.01;101221.19;5018158;28;20064;-62
2023/06/13 03:58:55;;;;;;;10.27;4.95;;;;;;;20.92;41.10;101221.69;5067363;28;20128;-64
2023/06/13 04:01:24;;;;;;;9.98;5.25;;;;;;;20.87;41.39;101227.38;5030808;28;20057;-63
2023/06/13 04:03:52;;;;;;;7.57;4.80;;;;;;;20.84;41.48;101226.91;5030332;28;20045;-65
2023/06/13 04:06:19;;;;;;;7.10;4.40;;;;;;;20.91;41.67;101226.41;5049599;28;20538;-66
2023/06/13 04:08:49;;;;;;;8.82;5.47;;;;;;;21.02;41.16;101229.63;5034127;28;20100;-62
2023/06/13 04:11:16;;;;;;;9.40;4.90;;;;;;;20.97;41.45;101238.13;5031867;28;20053;-63
2023/06/13 04:13:44;;;;;;;11.10;4.40;;;;;;;20.98;41.67;101237.00;5021969;28;20416;-62
2023/06/13 04:16:12;;;;;;;11.52;5.20;;;;;;;21.09;41.46;101243.81;5034690;28;20045;-64
2023/06/13 04:18:40;;;;;;;7.85;4.75;;;;;;;21.09;41.56;101243.81;5034992;28;20049;-64
2023/06/13 04:21:08;;;;;;;9.38;4.82;;;;;;;21.09;41.67;101241.03;5065120;28;20042;-65
2023/06/13 04:23:36;;;;;;;7.78;5.20;;;;;;;21.12;41.82;101245.09;5034537;28;20497;-63
2023/06/13 04:26:03;;;;;;;8.13;5.10;;;;;;;21.07;42.10;101240.56;5031532;28;20498;-63
2023/06/13 04:28:33;;;;;;;10.50;5.35;;;;;;;21.00;42.43;101240.25;5033285;28;20072;-62
2023/06/13 04:31:03;;;;;;;11.55;5.25;;;;;;;20.89;42.79;101247.28;5016737;28;20099;-63
2023/06/13 04:33:33;;;;;;;8.80;4.80;;;;;;;20.81;43.17;101244.19;5031321;28;20072;-62
2023/06/13 04:36:05;;;;;;;12.73;5.30;;;;;;;20.73;43.29;101250.53;5033674;28;20501;-63
2023/06/13 04:38:34;;;;;;;9.00;4.65;;;;;;;20.70;43.43;101251.19;5028264;28;20048;-62
2023/06/13 04:41:02;;;;;;;7.88;5.07;;;;;;;20.63;43.59;101248.09;5032889;28;20083;-64
2023/06/13 04:43:33;;;;;;;10.05;4.93;;;;;;;20.68;43.69;101249.88;5032265;28;20106;-63
2023/06/13 04:46:03;;;;;;;13.43;4.93;;;;;;;20.82;43.54;101248.56;5034377;28;20379;-64
2023/06/13 04:48:37;;;;;;;10.65;5.38;;;;;;;20.89;43.64;101250.03;5039422;28;20045;-64
2023/06/13 04:51:09;;;;;;;9.68;5.10;;;;;;;20.91;43.58;101248.56;5033395;28;20037;-64
2023/06/13 04:53:38;;;;;;;10.50;5.22;;;;;;;20.81;43.68;101258.03;5029240;28;20048;-64
2023/06/13 04:56:06;;;;;;;11.18;5.25;;;;;;;20.83;43.51;101252.97;5044669;28;20030;-61
2023/06/13 04:58:34;;;;;;;7.95;5.00;;;;;;;20.87;43.65;101253.13;5050532;28;20049;-61
2023/06/13 05:01:02;;;;;;;10.43;5.50;;;;;;;20.92;43.47;101257.69;5043102;28;20073;-62
2023/06/13 05:03:31;;;;;;;8.27;5.57;;;;;;;20.94;43.47;101259.00;5029442;28;20121;-63
2023/06/13 05:06:00;;;;;;;8.80;5.75;;;;;;;20.95;43.63;101254.25;5021328;28;20105;-64
2023/06/13 05:08:28;;;;;;;10.07;5.20;;;;;;;20.98;43.59;101259.97;5044178;28;20057;-61
2023/06/13 05:10:58;;;;;;;13.63;6.40;;;;;;;20.97;43.87;101260.28;5052645;28;20041;-63
2023/06/13 05:13:26;;;;;;;9.50;5.25;;;;;;;20.93;44.36;101270.41;5033997;28;20056;-62
2023/06/13 05:15:54;;;;;;;12.20;5.50;;;;;;;20.93;43.95;101270.41;5032982;28;20072;-63
2023/06/13 05:18:24;;;;;;;14.05;5.88;;;;;;;20.96;44.17;101266.97;5033403;28;20042;-61
2023/06/13 05:20:52;;;;;;;10.90;5.82;;;;;;;20.96;44.34;101267.78;5034481;28;20049;-62
2023/06/13 05:23:20;;;;;;;13.65;5.85;;;;;;;20.99;43.65;101267.13;5033724;28;20416;-62
2023/06/13 05:25:48;;;;;;;11.85;6.20;;;;;;;21.03;44.22;101270.88;5036253;28;20485;-61
2023/06/13 05:28:16;;;;;;;12.73;6.18;;;;;;;21.03;43.97;101261.75;5023998;28;20064;-61
2023/06/13 05:30:45;;;;;;;13.90;6.28;;;;;;;20.97;43.97;101263.06;5013817;28;20046;-62
2023/06/13 05:33:14;;;;;;;18.60;6.20;;;;;;;20.91;44.49;101269.91;5014193;28;20441;-63
2023/06/13 05:35:41;;;;;;;14.95;5.75;;;;;;;20.95;44.66;101259.78;5021411;28;20394;-60
2023/06/13 05:38:24;;;;;;;13.90;5.68;;;;;;;20.99;43.97;101258.81;5024848;28;20381;-62
2023/06/13 05:40:52;;;;;;;10.48;6.05;;;;;;;20.99;43.69;101261.59;5033458;28;20509;-64
2023/06/13 05:43:20;;;;;;;11.43;6.15;;;;;;;21.01;43.84;101264.03;4338373;28;10000772;-65
2023/06/13 05:45:48;;;;;;;11.60;5.30;;;;;;;21.10;43.01;101261.25;5035361;28;20041;-68
2023/06/13 05:48:16;;;;;;;11.45;5.65;;;;;;;21.14;42.71;101260.28;5017417;28;20049;-66
2023/06/13 05:50:44;;;;;;;13.57;5.63;;;;;;;21.14;42.66;101263.06;5033053;28;20051;-67
2023/06/13 05:53:11;;;;;;;10.20;5.57;;;;;;;21.16;42.84;101260.75;5032473;28;20120;-67
2023/06/13 05:55:40;;;;;;;9.52;5.25;;;;;;;21.22;42.40;101258.63;5033783;28;20057;-68
2023/06/13 05:58:07;;;;;;;9.38;5.97;;;;;;;21.24;42.21;101273.78;5033427;28;20092;-67
2023/06/13 06:00:35;;;;;;;9.95;5.95;;;;;;;21.26;42.18;101270.66;5034093;28;20560;-68
2023/06/13 06:03:05;;;;;;;14.15;5.80;;;;;;;21.25;41.85;101275.41;5015519;28;20084;-67
2023/06/13 06:05:33;;;;;;;15.05;6.60;;;;;;;21.24;42.23;101273.78;5032329;28;20092;-67
2023/06/13 06:08:01;;;;;;;10.15;5.40;;;;;;;21.24;42.34;101273.78;5013242;28;20125;-66
2023/06/13 06:10:28;;;;;;;8.68;5.55;;;;;;;21.25;42.20;101269.03;5034507;28;20080;-66
2023/06/13 06:12:56;;;;;;;9.65;5.53;;;;;;;21.30;42.17;101277.19;5033624;28;20095;-67
2023/06/13 06:15:24;;;;;;;9.57;4.82;;;;;;;21.32;42.38;101276.88;5034647;28;20080;-61
2023/06/13 06:17:52;;;;;;;16.10;5.65;;;;;;;21.33;41.96;101281.25;5035695;28;20120;-65
2023/06/13 06:20:20;;;;;;;9.32;5.00;;;;;;;21.37;42.06;101271.13;5022356;28;20124;-63
2023/06/13 06:22:47;;;;;;;11.05;5.75;;;;;;;21.43;41.93;101275.38;5035116;28;20100;-64
2023/06/13 06:25:19;;;;;;;10.48;5.25;;;;;;;21.45;42.05;101273.94;5019468;28;20094;-63
2023/06/13 06:27:51;;;;;;;13.35;6.05;;;;;;;21.48;42.35;101275.22;5034783;28;20044;-63
2023/06/13 06:30:19;;;;;;;11.35;5.53;;;;;;;21.48;42.21;101270.47;5034790;28;20056;-63
2023/06/13 06:32:46;;;;;;;9.45;5.53;;;;;;;21.41;42.43;101274.91;5027859;28;20540;-65
2023/06/13 06:35:14;;;;;;;12.63;4.93;;;;;;;21.42;42.74;101277.34;5016728;28;20077;-62
2023/06/13 06:37:43;;;;;;;8.68;5.28;;;;;;;21.38;42.52;101273.59;5032956;28;20060;-62
2023/06/13 06:40:11;;;;;;;11.73;5.65;;;;;;;21.39;42.84;101274.41;5033772;28;20045;-62
2023/06/13 06:42:39;;;;;;;12.38;5.63;;;;;;;21.38;42.74;101278.28;5031113;28;20120;-63
2023/06/13 06:45:11;;;;;;;9.45;5.45;;;;;;;21.46;42.72;101280.28;5034913;28;20052;-64
2023/06/13 06:47:40;;;;;;;11.50;5.35;;;;;;;21.54;42.18;101270.31;5036528;28;20053;-63
2023/06/13 06:50:08;;;;;;;22.13;7.75;;;;;;;21.60;41.87;101274.50;5007980;28;20121;-64
2023/06/13 06:52:36;;;;;;;15.25;5.68;;;;;;;21.62;42.33;101275.81;5024951;28;20068;-68
2023/06/13 06:55:04;;;;;;;20.02;7.20;;;;;;;21.64;41.94;101278.25;5035918;28;20132;-67
2023/06/13 06:57:31;;;;;;;19.77;6.40;;;;;;;21.66;41.79;101276.78;5019336;28;20498;-68
2023/06/13 06:59:59;;;;;;;17.92;6.55;;;;;;;21.71;41.99;101278.53;5036851;28;20069;-66
2023/06/13 07:02:27;;;;;;;13.52;5.95;;;;;;;21.73;41.72;101275.47;5018572;28;20516;-67
2023/06/13 07:04:55;;;;;;;15.68;5.93;;;;;;;21.74;41.87;101277.06;5036246;28;20497;-67
2023/06/13 07:07:23;;;;;;;14.60;6.15;;;;;;;21.77;41.80;101277.22;5036713;28;20085;-66
2023/06/13 07:09:51;;;;;;;11.88;5.38;;;;;;;21.77;41.94;101270.84;5037061;28;20072;-68
2023/06/13 07:12:18;;;;;;;12.68;5.85;;;;;;;21.81;41.89;101271.81;5036272;28;20072;-66
2023/06/13 07:14:46;;;;;;;10.45;5.13;;;;;;;21.83;42.44;101273.09;5036134;28;20049;-67
2023/06/13 07:17:14;;;;;;;11.00;5.65;;;;;;;21.84;42.28;101274.75;5036316;28;20246;-66
2023/06/13 07:19:41;;;;;;;8.45;5.28;;;;;;;21.86;42.01;101275.25;5019691;28;20049;-66
2023/06/13 07:22:09;;;;;;;8.77;5.22;;;;;;;21.90;41.97;101278.13;5034956;28;20059;-66
2023/06/13 07:24:37;;;;;;;13.02;5.55;;;;;;;21.93;41.84;101288.56;5036259;28;20045;-67
2023/06/13 07:27:06;;;;;;;12.55;5.40;;;;;;;21.95;41.67;101285.47;5035530;28;20107;-67
2023/06/13 07:29:35;;;;;;;13.20;5.32;;;;;;;21.96;41.87;101287.91;5035030;28;20132;-67
2023/06/13 07:32:03;;;;;;;12.90;5.30;;;;;;;22.00;41.92;101294.41;5034602;28;20393;-66
2023/06/13 07:34:31;;;;;;;10.23;5.68;;;;;;;22.03;41.79;101292.91;5035690;28;20084;-67
2023/06/13 07:37:03;;;;;;;12.30;5.38;;;;;;;22.05;41.78;101291.44;5035156;28;20072;-67
2023/06/13 07:39:31;;;;;;;14.68;5.80;;;;;;;22.07;41.83;101291.91;5036109;28;20046;-65
2023/06/13 07:41:59;;;;;;;11.98;5.20;;;;;;;22.11;41.58;101281.78;5032151;28;20054;-66
2023/06/13 07:44:27;;;;;;;10.70;5.15;;;;;;;22.07;41.38;101283.59;5014498;28;20077;-66
2023/06/13 07:46:55;;;;;;;11.40;5.80;;;;;;;22.08;42.23;101287.19;5014719;28;20057;-65
2023/06/13 07:49:22;;;;;;;11.10;4.65;;;;;;;22.12;42.12;101285.38;5016022;28;20561;-65
2023/06/13 07:51:50;;;;;;;10.40;5.32;;;;;;;22.16;42.35;101283.56;5023756;28;20052;-66
2023/06/13 07:54:18;;;;;;;10.90;5.88;;;;;;;22.21;42.13;101283.38;5035326;28;20050;-66
2023/06/13 07:56:47;;;;;;;14.20;5.85;;;;;;;22.26;41.87;101290.72;5035449;28;20052;-66
2023/06/13 07:59:16;;;;;;;11.23;5.35;;;;;;;22.28;41.67;101280.91;5035018;28;20371;-67
2023/06/13 08:01:44;;;;;;;17.13;5.50;;;;;;;22.31;41.81;101277.44;5034632;28;20064;-65
2023/06/13 08:04:12;;;;;;;9.25;5.00;;;;;;;22.33;41.71;101275.16;5035422;28;20478;-66
2023/06/13 08:06:40;;;;;;;15.07;5.50;;;;;;;22.39;41.71;101270.19;5034356;28;20045;-66
2023/06/13 08:09:11;;;;;;;12.65;5.47;;;;;;;22.45;41.24;101268.06;5050428;28;20468;-66
2023/06/13 08:11:39;;;;;;;14.00;5.18;;;;;;;22.47;41.51;101274.88;5034038;28;20113;-66
2023/06/13 08:14:08;;;;;;;10.52;4.95;;;;;;;22.50;40.94;101279.75;5033917;28;20489;-66
2023/06/13 08:16:37;;;;;;;15.80;5.47;;;;;;;22.54;41.08;101280.72;5034924;28;20076;-65
2023/06/13 08:19:05;;;;;;;8.27;4.85;;;;;;;22.59;40.15;101276.94;5035068;28;20444;-67
2023/06/13 08:21:33;;;;;;;10.23;5.18;;;;;;;22.63;40.22;101282.59;5032170;28;20099;-65
2023/06/13 08:24:00;;;;;;;9.98;5.13;;;;;;;22.66;39.79;101281.94;5017311;28;20069;-66
2023/06/13 08:26:34;;;;;;;8.40;4.72;;;;;;;22.70;39.63;101278.13;5035208;28;20084;-66
2023/06/13 08:29:03;;;;;;;11.55;4.57;;;;;;;22.75;39.35;101277.94;5034827;28;20100;-65
2023/06/13 08:31:32;;;;;;;10.10;5.50;;;;;;;22.79;39.30;101280.84;5033407;28;20046;-66
2023/06/13 08:34:05;;;;;;;8.65;5.00;;;;;;;22.83;39.44;101286.56;5033398;28;20053;-66
2023/06/13 08:36:36;;;;;;;9.85;4.95;;;;;;;22.87;39.77;101274.38;5034744;28;20053;-66
2023/06/13 08:39:04;;;;;;;11.77;5.05;;;;;;;22.92;39.06;101282.53;5034944;28;20517;-66
2023/06/13 08:41:33;;;;;;;9.18;4.65;;;;;;;22.94;38.96;101274.66;5034035;28;20053;-66
2023/06/13 08:44:01;;;;;;;8.18;4.65;;;;;;;22.97;39.30;101275.97;5040326;28;20109;-66
2023/06/13 08:46:29;;;;;;;9.73;5.00;;;;;;;23.01;38.96;101276.09;5051264;28;20076;-66
2023/06/13 08:48:57;;;;;;;13.68;5.28;;;;;;;23.07;38.87;101260.84;5035281;28;20064;-66
2023/06/13 08:51:29;;;;;;;10.25;5.03;;;;;;;23.10;38.53;101274.88;5025581;28;20073;-65
2023/06/13 08:54:00;;;;;;;8.43;4.70;;;;;;;23.11;38.61;101264.56;5018663;28;20079;-65
2023/06/13 08:56:42;;;;;;;13.50;5.25;;;;;;;23.15;37.92;101265.50;5011257;28;20486;-65
2023/06/13 08:59:24;;;;;;;9.05;4.65;;;;;;;23.16;37.92;101256.81;5066219;28;20140;-66
2023/06/13 09:01:53;;;;;;;10.38;5.57;;;;;;;23.23;38.08;101261.81;5030242;28;20136;-65
2023/06/13 09:04:23;;;;;;;10.45;4.65;;;;;;;23.26;38.04;101260.31;5017540;28;20463;-67
2023/06/13 09:06:51;;;;;;;10.75;4.90;;;;;;;23.27;37.85;101259.97;5035410;28;20076;-67
2023/06/13 09:09:19;;;;;;;7.88;4.60;;;;;;;23.31;37.70;101251.78;5010416;28;20046;-66
2023/06/13 09:11:49;;;;;;;11.93;4.82;;;;;;;23.38;38.33;101247.25;5014395;28;20065;-66
2023/06/13 09:14:19;;;;;;;9.95;4.72;;;;;;;23.44;37.74;101249.81;5035876;28;20033;-65
2023/06/13 09:16:51;;;;;;;11.65;5.05;;;;;;;23.48;37.66;101246.00;5052009;28;20067;-61
2023/06/13 09:19:19;;;;;;;7.57;4.55;;;;;;;23.56;37.54;101253.41;5046199;28;20099;-61
2023/06/13 09:21:47;;;;;;;7.55;4.55;;;;;;;23.59;36.82;101251.91;5026552;28;20121;-63
2023/06/13 09:24:16;;;;;;;12.20;5.10;;;;;;;23.64;36.16;101248.91;5029626;28;20060;-63
2023/06/13 09:26:44;;;;;;;9.60;5.15;;;;;;;23.70;35.23;101246.72;5048672;28;20072;-63
2023/06/13 09:29:12;;;;;;;11.07;4.95;;;;;;;23.70;35.72;101246.72;5046563;28;20061;-62
2023/06/13 09:31:59;;;;;;;12.18;5.15;;;;;;;23.72;35.21;101250.78;5034884;28;20065;-62
2023/06/13 09:34:30;;;;;;;11.02;4.90;;;;;;;23.76;35.45;101253.69;5032320;28;20068;-64
2023/06/13 09:36:59;;;;;;;12.77;5.43;;;;;;;23.79;35.94;101250.22;5030241;28;20042;-62
2023/06/13 09:39:28;;;;;;;9.93;4.95;;;;;;;23.81;36.15;101254.28;5014144;28;20077;-64
2023/06/13 09:42:01;;;;;;;11.18;5.38;;;;;;;23.86;36.17;101247.69;4996599;28;20081;-64
2023/06/13 09:44:34;;;;;;;9.80;5.47;;;;;;;23.94;35.74;101245.94;5012860;28;20045;-64
2023/06/13 09:47:23;;;;;;;10.45;4.97;;;;;;;23.96;35.41;101243.63;5024714;28;20409;-63
2023/06/13 09:49:58;;;;;;;13.95;5.10;;;;;;;24.00;35.52;101245.34;5015296;28;20064;-66
2023/06/13 09:52:27;;;;;;;10.75;5.55;;;;;;;24.03;34.69;101236.28;5032034;28;20513;-64
2023/06/13 09:54:56;;;;;;;14.98;5.40;;;;;;;24.10;35.00;101241.28;5032397;28;20096;-63
2023/06/13 09:57:24;;;;;;;14.52;6.25;;;;;;;24.15;34.62;101241.03;5032403;28;20168;-65
2023/06/13 10:00:10;;;;;;;11.68;5.57;;;;;;;24.21;34.61;101239.63;5032728;28;20052;-65
2023/06/13 10:02:38;;;;;;;11.27;5.53;;;;;;;24.21;34.14;101245.19;5031311;28;20509;-64
2023/06/13 10:05:06;;;;;;;12.27;5.63;;;;;;;24.19;33.92;101241.94;5031686;28;20041;-64
2023/06/13 10:07:34;;;;;;;16.73;5.85;;;;;;;24.23;33.45;101242.88;5033183;28;20046;-63
2023/06/13 10:10:02;;;;;;;14.30;5.32;;;;;;;24.27;33.38;101242.16;5031585;28;20052;-63
2023/06/13 10:12:30;;;;;;;9.40;4.72;;;;;;;24.29;33.24;101234.28;5028918;28;20037;-63
2023/06/13 10:15:01;;;;;;;9.50;5.03;;;;;;;24.35;33.40;101238.44;5065099;28;20049;-64
2023/06/13 10:17:33;;;;;;;12.65;5.07;;;;;;;24.37;34.08;101236.13;5016236;28;20053;-63
2023/06/13 10:20:06;;;;;;;13.70;5.82;;;;;;;24.45;32.89;101232.38;5031676;28;20041;-62
2023/06/13 10:22:39;;;;;;;14.50;5.05;;;;;;;24.48;32.95;101239.25;5022461;28;20038;-64
2023/06/13 10:25:08;;;;;;;11.35;5.10;;;;;;;24.52;32.71;101238.19;5029348;28;20104;-63
2023/06/13 10:27:38;;;;;;;12.10;4.90;;;;;;;24.54;32.43;101235.88;4681030;28;9999604;-65
2023/06/13 10:30:06;;;;;;;9.38;5.40;;;;;;;24.55;32.42;101231.91;5030751;28;20050;-65
2023/06/13 10:32:55;;;;;;;12.45;5.03;;;;;;;24.56;32.93;101232.75;5029032;28;20080;-64
2023/06/13 10:35:40;;;;;;;11.35;5.20;;;;;;;24.69;32.26;101230.72;5012952;28;20049;-65
2023/06/13 10:38:21;;;;;;;13.95;5.03;;;;;;;24.71;32.41;101223.63;5012121;28;20129;-65
2023/06/13 10:41:05;;;;;;;12.13;5.22;;;;;;;24.77;31.28;101229.72;5013166;28;20443;-66
2023/06/13 10:43:48;;;;;;;22.52;5.78;;;;;;;24.84;31.01;101229.94;5013442;28;20054;-63
2023/06/13 10:46:17;;;;;;;13.65;5.20;;;;;;;24.78;31.12;101223.00;5013391;28;20092;-64
2023/06/13 10:48:51;;;;;;;9.32;4.90;;;;;;;24.77;31.25;101229.72;5044401;28;20132;-63
2023/06/13 10:51:20;;;;;;;8.75;4.78;;;;;;;24.77;31.58;101227.75;5033988;28;20053;-65
2023/06/13 10:54:03;;;;;;;10.57;5.15;;;;;;;24.83;31.48;101223.56;5031664;28;20121;-64
2023/06/13 10:56:37;;;;;;;11.15;5.00;;;;;;;24.88;30.45;101223.28;5032684;28;20567;-65
2023/06/13 10:59:11;;;;;;;8.27;4.57;;;;;;;24.91;29.99;101226.53;5015546;28;20516;-65
2023/06/13 11:01:40;;;;;;;9.18;4.63;;;;;;;24.93;30.33;101224.22;5026934;28;20053;-63
2023/06/13 11:04:16;;;;;;;10.50;4.68;;;;;;;24.97;29.87;101227.91;5021704;28;20422;-62
2023/06/13 11:06:46;;;;;;;9.25;4.90;;;;;;;24.97;29.69;101213.97;5031513;28;20124;-65
2023/06/13 11:09:23;;;;;;;11.88;4.80;;;;;;;25.04;29.45;101219.75;5031984;28;20461;-64
2023/06/13 11:12:00;;;;;;;11.02;5.00;;;;;;;25.08;29.67;101220.63;5017712;28;20092;-65
2023/06/13 11:14:33;;;;;;;13.68;4.72;;;;;;;25.04;29.51;101209.41;5003537;28;20124;-65
2023/06/13 11:17:02;;;;;;;12.30;4.75;;;;;;;25.07;28.94;101208.69;5031240;28;20053;-65
2023/06/13 11:19:34;;;;;;;8.40;4.78;;;;;;;25.09;28.66;101206.34;5030876;28;20076;-63
2023/06/13 11:22:02;;;;;;;12.90;5.45;;;;;;;25.11;28.79;101197.63;5029299;28;20060;-65
2023/06/13 11:24:33;;;;;;;13.88;5.03;;;;;;;25.14;29.02;101199.69;5030016;28;20067;-64
2023/06/13 11:27:06;;;;;;;12.05;5.05;;;;;;;25.17;28.61;101210.16;5031949;28;20111;-64
2023/06/13 11:29:34;;;;;;;9.30;4.40;;;;;;;25.23;28.24;101210.69;5012355;28;20829;-62
2023/06/13 11:32:06;;;;;;;12.98;5.68;;;;;;;25.25;28.63;101216.72;5011947;28;20057;-62
2023/06/13 11:34:48;;;;;;;8.32;4.68;;;;;;;25.25;28.11;101216.72;5030464;28;20041;-63